Time;durP1;ratioP1;P1;durP2;ratioP2;P2;SDS_P1;SDS_P2;PMS_P1;PMS_P2;Temp;Humidity;BMP_temperature;BMP_pressure;BME280_temperature;BME280_humidity;BME280_pressure;Samples;Min_cycle;Max_cycle;Signal;HPM_P1;HPM_P2
2023/07/17 00:01:12;;;;;;;;;;;;;;;;;;5009077;28;101674;-77
2023/07/17 00:03:38;;;;;;;;;;;;;;;;;;5012561;28;119159;-77
2023/07/17 00:06:05;;;;;;;;;;;;;;;;;;5013815;28;101154;-78
2023/07/17 00:08:31;;;;;;;;;;;;;;;;;;5010221;28;121390;-77
2023/07/17 00:10:58;;;;;;;;;;;;;;;;;;5012929;28;99943;-79
2023/07/17 00:13:27;;;;;;;;;;;;;;;;;;5014379;28;122574;-79
2023/07/17 00:15:53;;;;;;;;;;;;;;;;;;5016253;28;101637;-79
2023/07/17 00:18:19;;;;;;;;;;;;;;;;;;5018414;28;122661;-78
2023/07/17 00:20:46;;;;;;;;;;;;;;;;;;5011829;28;119144;-78
2023/07/17 00:23:12;;;;;;;;;;;;;;;;;;5014109;28;109617;-79
2023/07/17 00:25:39;;;;;;;;;;;;;;;;;;5019714;28;92460;-78
2023/07/17 00:28:05;;;;;;;;;;;;;;;;;;5014262;28;122484;-79
2023/07/17 00:30:32;;;;;;;;;;;;;;;;;;5013220;28;122208;-79
2023/07/17 00:32:58;;;;;;;;;;;;;;;;;;5017297;28;120932;-79
2023/07/17 00:35:25;;;;;;;;;;;;;;;;;;5017126;28;123813;-79
2023/07/17 00:37:51;;;;;;;;;;;;;;;;;;5020146;28;119055;-78
2023/07/17 00:40:17;;;;;;;;;;;;;;;;;;5019268;28;120772;-79
2023/07/17 00:42:44;;;;;;;;;;;;;;;;;;5012160;28;117584;-78
2023/07/17 00:45:10;;;;;;;;;;;;;;;;;;5016130;28;121172;-78
2023/07/17 00:47:36;;;;;;;;;;;;;;;;;;5035200;27;119662;-78
2023/07/17 00:50:03;;;;;;;;;;;;;;;;;;5016395;28;111699;-78
2023/07/17 00:52:32;;;;;;;;;;;;;;;;;;5019192;28;92159;-79
2023/07/17 00:54:58;;;;;;;;;;;;;;;;;;5018603;28;121413;-78
2023/07/17 00:57:25;;;;;;;;;;;;;;;;;;5015789;28;93726;-79
2023/07/17 00:59:52;;;;;;;;;;;;;;;;;;5015849;28;94662;-79
2023/07/17 01:02:18;;;;;;;;;;;;;;;;;;5018440;28;123846;-79
2023/07/17 01:04:47;;;;;;;;;;;;;;;;;;5020246;28;120238;-79
2023/07/17 01:07:13;;;;;;;;;;;;;;;;;;5011846;28;121920;-79
2023/07/17 01:09:40;;;;;;;;;;;;;;;;;;5012283;28;122739;-79
2023/07/17 01:12:07;;;;;;;;;;;;;;;;;;5013986;28;95239;-79
2023/07/17 01:14:34;;;;;;;;;;;;;;;;;;5014278;27;121426;-79
2023/07/17 01:17:00;;;;;;;;;;;;;;;;;;5018699;28;119892;-79
2023/07/17 01:19:27;;;;;;;;;;;;;;;;;;5015786;27;123574;-79
2023/07/17 01:21:55;;;;;;;;;;;;;;;;;;5019020;28;95675;-80
2023/07/17 01:24:22;;;;;;;;;;;;;;;;;;5017819;28;94789;-80
2023/07/17 01:26:49;;;;;;;;;;;;;;;;;;5017981;28;93606;-79
2023/07/17 01:29:15;;;;;;;;;;;;;;;;;;5019324;28;121385;-79
2023/07/17 01:31:42;;;;;;;;;;;;;;;;;;5021356;28;106134;-79
2023/07/17 01:34:09;;;;;;;;;;;;;;;;;;5018439;28;121498;-79
2023/07/17 01:36:35;;;;;;;;;;;;;;;;;;5017792;28;105345;-79
2023/07/17 01:39:02;;;;;;;;;;;;;;;;;;5017837;28;94643;-79
2023/07/17 01:41:28;;;;;;;;;;;;;;;;;;5016350;28;92057;-78
2023/07/17 01:43:56;;;;;;;;;;;;;;;;;;5014853;28;94879;-78
2023/07/17 01:46:22;;;;;;;;;;;;;;;;;;5016942;28;92387;-79
2023/07/17 01:48:49;;;;;;;;;;;;;;;;;;5015301;28;122838;-79
2023/07/17 01:51:16;;;;;;;;;;;;;;;;;;5019754;28;92425;-80
2023/07/17 01:53:43;;;;;;;;;;;;;;;;;;5008454;28;118555;-79
2023/07/17 01:56:09;;;;;;;;;;;;;;;;;;5035930;27;105102;-79
2023/07/17 01:58:35;;;;;;;;;;;;;;;;;;5002572;28;117029;-79
2023/07/17 02:01:03;;;;;;;;;;;;;;;;;;5019429;28;103994;-80
2023/07/17 02:03:31;;;;;;;;;;;;;;;;;;5020303;28;92443;-79
2023/07/17 02:05:58;;;;;;;;;;;;;;;;;;5019884;28;92425;-79
2023/07/17 02:08:25;;;;;;;;;;;;;;;;;;5027787;28;121352;-80
2023/07/17 02:10:53;;;;;;;;;;;;;;;;;;5013843;28;94491;-80
2023/07/17 02:13:19;;;;;;;;;;;;;;;;;;5009348;28;111390;-80
2023/07/17 02:15:45;;;;;;;;;;;;;;;;;;5002891;28;94003;-79
2023/07/17 02:18:12;;;;;;;;;;;;;;;;;;5020718;28;122078;-79
2023/07/17 02:20:38;;;;;;;;;;;;;;;;;;5022351;28;120844;-79
2023/07/17 02:23:05;;;;;;;;;;;;;;;;;;5021620;28;92348;-79
2023/07/17 02:25:33;;;;;;;;;;;;;;;;;;5023996;28;93543;-79
2023/07/17 02:27:59;;;;;;;;;;;;;;;;;;5021015;28;94815;-79
2023/07/17 02:30:26;;;;;;;;;;;;;;;;;;5020833;28;115025;-79
2023/07/17 02:32:52;;;;;;;;;;;;;;;;;;5019566;28;119993;-78
2023/07/17 02:35:18;;;;;;;;;;;;;;;;;;5021578;28;103028;-79
2023/07/17 02:37:46;;;;;;;;;;;;;;;;;;5017971;28;94863;-80
2023/07/17 02:40:13;;;;;;;;;;;;;;;;;;5018060;28;121375;-79
2023/07/17 02:42:40;;;;;;;;;;;;;;;;;;5018105;28;116094;-79
2023/07/17 02:45:06;;;;;;;;;;;;;;;;;;5018835;28;111202;-78
2023/07/17 02:47:33;;;;;;;;;;;;;;;;;;5018388;28;104567;-79
2023/07/17 02:49:59;;;;;;;;;;;;;;;;;;5017138;28;122486;-79
2023/07/17 02:52:25;;;;;;;;;;;;;;;;;;5019685;28;116501;-79
2023/07/17 02:54:52;;;;;;;;;;;;;;;;;;5012232;28;120645;-80
2023/07/17 02:57:18;;;;;;;;;;;;;;;;;;5010182;28;118409;-79
2023/07/17 02:59:45;;;;;;;;;;;;;;;;;;5017859;28;114839;-79
2023/07/17 03:02:11;;;;;;;;;;;;;;;;;;5013793;28;119057;-79
2023/07/17 03:04:37;;;;;;;;;;;;;;;;;;5015931;28;94770;-78
2023/07/17 03:07:04;;;;;;;;;;;;;;;;;;5014621;28;121346;-78
2023/07/17 03:09:31;;;;;;;;;;;;;;;;;;5015869;28;94301;-78
2023/07/17 03:11:57;;;;;;;;;;;;;;;;;;5018794;28;92839;-78
2023/07/17 03:14:24;;;;;;;;;;;;;;;;;;5016663;28;107018;-78
2023/07/17 03:16:50;;;;;;;;;;;;;;;;;;5017420;28;93025;-78
2023/07/17 03:19:17;;;;;;;;;;;;;;;;;;5018929;28;107315;-78
2023/07/17 03:21:43;;;;;;;;;;;;;;;;;;5019224;28;92387;-78
2023/07/17 03:24:09;;;;;;;;;;;;;;;;;;5016432;28;121426;-79
2023/07/17 03:26:36;;;;;;;;;;;;;;;;;;5016071;28;125029;-79
2023/07/17 03:29:04;;;;;;;;;;;;;;;;;;5016582;28;94745;-79
2023/07/17 03:31:30;;;;;;;;;;;;;;;;;;5015768;28;120464;-79
2023/07/17 03:33:57;;;;;;;;;;;;;;;;;;5016639;28;120471;-78
2023/07/17 03:36:24;;;;;;;;;;;;;;;;;;5018872;28;93774;-79
2023/07/17 03:38:51;;;;;;;;;;;;;;;;;;5019634;28;92352;-79
2023/07/17 03:41:20;;;;;;;;;;;;;;;;;;5020850;28;102495;-79
2023/07/17 03:43:47;;;;;;;;;;;;;;;;;;5017688;28;120631;-79
2023/07/17 03:46:13;;;;;;;;;;;;;;;;;;5016772;28;123217;-79
2023/07/17 03:48:39;;;;;;;;;;;;;;;;;;5017644;28;93173;-79
2023/07/17 03:51:08;;;;;;;;;;;;;;;;;;4999784;28;94671;-79
2023/07/17 03:53:35;;;;;;;;;;;;;;;;;;5018291;28;92950;-79
2023/07/17 03:56:02;;;;;;;;;;;;;;;;;;5015085;28;115173;-78
2023/07/17 03:58:28;;;;;;;;;;;;;;;;;;4999628;28;115682;-78
2023/07/17 04:00:55;;;;;;;;;;;;;;;;;;5015262;28;92331;-78
2023/07/17 04:03:28;;;;;;;;;;;;;;;;;;5020261;28;93094;-78
2023/07/17 04:05:54;;;;;;;;;;;;;;;;;;5008834;28;116354;-78
2023/07/17 04:08:21;;;;;;;;;;;;;;;;;;5016496;28;123026;-78
2023/07/17 04:10:47;;;;;;;;;;;;;;;;;;5016530;28;120783;-79
2023/07/17 04:13:14;;;;;;;;;;;;;;;;;;5016918;28;101800;-80
2023/07/17 04:15:41;;;;;;;;;;;;;;;;;;5013487;28;94797;-78
2023/07/17 04:18:11;;;;;;;;;;;;;;;;;;4998340;28;93600;-79
2023/07/17 04:20:38;;;;;;;;;;;;;;;;;;5017444;28;102609;-79
2023/07/17 04:23:05;;;;;;;;;;;;;;;;;;5035899;27;95392;-79
2023/07/17 04:25:32;;;;;;;;;;;;;;;;;;5016156;28;93508;-79
2023/07/17 04:27:58;;;;;;;;;;;;;;;;;;5015292;28;92277;-79
2023/07/17 04:30:25;;;;;;;;;;;;;;;;;;5014304;28;94744;-78
2023/07/17 04:32:52;;;;;;;;;;;;;;;;;;5017236;28;103544;-78
2023/07/17 04:35:19;;;;;;;;;;;;;;;;;;5015429;28;94391;-79
2023/07/17 04:37:46;;;;;;;;;;;;;;;;;;5013467;28;92425;-79
2023/07/17 04:40:12;;;;;;;;;;;;;;;;;;5015107;28;95575;-78
2023/07/17 04:42:39;;;;;;;;;;;;;;;;;;5012693;28;94602;-78
2023/07/17 04:45:05;;;;;;;;;;;;;;;;;;5013972;28;123228;-78
2023/07/17 04:47:32;;;;;;;;;;;;;;;;;;5011896;28;122471;-78
2023/07/17 04:49:58;;;;;;;;;;;;;;;;;;5013085;28;92547;-78
2023/07/17 04:52:26;;;;;;;;;;;;;;;;;;5015495;28;92483;-78
2023/07/17 04:54:53;;;;;;;;;;;;;;;;;;5017817;28;112399;-79
2023/07/17 04:57:21;;;;;;;;;;;;;;;;;;5018619;28;92321;-78
2023/07/17 04:59:47;;;;;;;;;;;;;;;;;;5018830;28;92935;-78
2023/07/17 05:02:15;;;;;;;;;;;;;;;;;;5018618;28;93697;-79
2023/07/17 05:04:41;;;;;;;;;;;;;;;;;;5003297;28;94573;-77
2023/07/17 05:07:08;;;;;;;;;;;;;;;;;;5020066;28;98821;-79
2023/07/17 05:09:34;;;;;;;;;;;;;;;;;;5021351;28;92788;-78
2023/07/17 05:12:01;;;;;;;;;;;;;;;;;;5017914;28;93268;-78
2023/07/17 05:14:29;;;;;;;;;;;;;;;;;;5018600;28;92449;-78
2023/07/17 05:16:56;;;;;;;;;;;;;;;;;;5014484;28;121015;-78
2023/07/17 05:19:22;;;;;;;;;;;;;;;;;;5018464;28;93243;-78
2023/07/17 05:21:49;;;;;;;;;;;;;;;;;;5012909;28;122219;-78
2023/07/17 05:24:15;;;;;;;;;;;;;;;;;;5018089;28;92390;-78
2023/07/17 05:26:42;;;;;;;;;;;;;;;;;;5016652;28;92485;-78
2023/07/17 05:29:08;;;;;;;;;;;;;;;;;;5002858;28;94956;-79
2023/07/17 05:31:35;;;;;;;;;;;;;;;;;;5016040;28;116404;-78
2023/07/17 05:34:01;;;;;;;;;;;;;;;;;;5025370;28;102718;-77
2023/07/17 05:36:28;;;;;;;;;;;;;;;;;;5015748;28;92505;-78
2023/07/17 05:38:54;;;;;;;;;;;;;;;;;;5016420;28;121345;-78
2023/07/17 05:41:20;;;;;;;;;;;;;;;;;;5017453;28;115565;-78
2023/07/17 05:43:47;;;;;;;;;;;;;;;;;;5020604;28;93145;-78
2023/07/17 05:46:17;;;;;;;;;;;;;;;;;;5004370;28;94073;-79
2023/07/17 05:48:43;;;;;;;;;;;;;;;;;;5020593;28;103001;-78
2023/07/17 05:51:10;;;;;;;;;;;;;;;;;;5021401;28;94200;-79
2023/07/17 05:53:37;;;;;;;;;;;;;;;;;;5017597;28;94737;-78
2023/07/17 05:56:09;;;;;;;;;;;;;;;;;;5018566;28;95970;-78
2023/07/17 05:58:39;;;;;;;;;;;;;;;;;;5020076;28;94923;-79
2023/07/17 06:01:06;;;;;;;;;;;;;;;;;;5014824;28;121317;-78
2023/07/17 06:03:32;;;;;;;;;;;;;;;;;;5017624;28;116634;-78
2023/07/17 06:06:03;;;;;;;;;;;;;;;;;;5019016;28;92216;-80
2023/07/17 06:08:29;;;;;;;;;;;;;;;;;;5016657;28;122548;-79
2023/07/17 06:10:55;;;;;;;;;;;;;;;;;;5022163;28;103342;-76
2023/07/17 06:13:22;;;;;;;;;;;;;;;;;;5013517;28;122092;-77
2023/07/17 06:15:48;;;;;;;;;;;;;;;;;;5016542;28;111960;-78
2023/07/17 06:18:17;;;;;;;;;;;;;;;;;;5016006;28;94680;-78
2023/07/17 06:20:44;;;;;;;;;;;;;;;;;;5010449;28;119276;-77
2023/07/17 06:23:10;;;;;;;;;;;;;;;;;;5016491;28;93069;-78
2023/07/17 06:25:38;;;;;;;;;;;;;;;;;;5015279;28;122853;-78
2023/07/17 06:28:05;;;;;;;;;;;;;;;;;;5016103;28;125336;-79
2023/07/17 06:30:31;;;;;;;;;;;;;;;;;;5017674;28;121985;-78
2023/07/17 06:32:58;;;;;;;;;;;;;;;;;;5020628;28;122401;-77
2023/07/17 06:35:24;;;;;;;;;;;;;;;;;;5023539;28;94853;-78
2023/07/17 06:37:50;;;;;;;;;;;;;;;;;;5016566;28;117931;-78
2023/07/17 06:40:17;;;;;;;;;;;;;;;;;;5020659;28;116797;-78
2023/07/17 06:42:43;;;;;;;;;;;;;;;;;;5017687;28;94761;-78
2023/07/17 06:45:10;;;;;;;;;;;;;;;;;;5014908;28;117027;-78
2023/07/17 06:47:38;;;;;;;;;;;;;;;;;;5013945;28;122560;-77
2023/07/17 06:50:04;;;;;;;;;;;;;;;;;;5002285;28;92066;-79
2023/07/17 06:52:31;;;;;;;;;;;;;;;;;;5011247;28;93218;-77
2023/07/17 06:54:57;;;;;;;;;;;;;;;;;;5015723;28;121004;-78
2023/07/17 06:57:30;;;;;;;;;;;;;;;;;;5014004;28;121178;-78
2023/07/17 06:59:56;;;;;;;;;;;;;;;;;;5016146;28;116934;-78
2023/07/17 07:02:23;;;;;;;;;;;;;;;;;;5014142;28;121392;-79
2023/07/17 07:04:49;;;;;;;;;;;;;;;;;;5014451;28;116708;-78
2023/07/17 07:07:15;;;;;;;;;;;;;;;;;;5013112;28;110308;-78
2023/07/17 07:09:44;;;;;;;;;;;;;;;;;;5014891;28;123214;-78
2023/07/17 07:12:10;;;;;;;;;;;;;;;;;;5015409;28;121143;-79
2023/07/17 07:14:37;;;;;;;;;;;;;;;;;;5016141;28;92301;-78
2023/07/17 07:17:03;;;;;;;;;;;;;;;;;;5019469;28;120697;-78
2023/07/17 07:19:30;;;;;;;;;;;;;;;;;;5015747;28;114261;-78
2023/07/17 07:21:56;;;;;;;;;;;;;;;;;;5014584;28;100103;-78
2023/07/17 07:24:22;;;;;;;;;;;;;;;;;;5014693;28;119501;-78
2023/07/17 07:26:49;;;;;;;;;;;;;;;;;;4996155;28;106231;-78
2023/07/17 07:29:15;;;;;;;;;;;;;;;;;;5018487;28;120728;-78
2023/07/17 07:31:42;;;;;;;;;;;;;;;;;;5015528;28;94748;-79
2023/07/17 07:34:08;;;;;;;;;;;;;;;;;;5016489;28;92427;-78
2023/07/17 07:36:34;;;;;;;;;;;;;;;;;;5017124;28;92362;-78
2023/07/17 07:39:05;;;;;;;;;;;;;;;;;;5020283;28;122942;-79
2023/07/17 07:41:31;;;;;;;;;;;;;;;;;;5016389;28;123963;-78
2023/07/17 07:43:58;;;;;;;;;;;;;;;;;;4998464;28;121457;-79
2023/07/17 07:46:25;;;;;;;;;;;;;;;;;;5017440;28;120141;-79
2023/07/17 07:48:52;;;;;;;;;;;;;;;;;;4999978;28;94097;-79
2023/07/17 07:51:18;;;;;;;;;;;;;;;;;;5017569;28;122256;-79
2023/07/17 07:53:44;;;;;;;;;;;;;;;;;;5017048;28;110954;-79
2023/07/17 07:56:11;;;;;;;;;;;;;;;;;;5015053;28;120117;-78
2023/07/17 07:58:37;;;;;;;;;;;;;;;;;;5016101;28;104068;-79
2023/07/17 08:01:04;;;;;;;;;;;;;;;;;;5019664;28;92288;-79
2023/07/17 08:03:31;;;;;;;;;;;;;;;;;;5016717;28;111882;-78
2023/07/17 08:05:57;;;;;;;;;;;;;;;;;;5016625;28;122960;-78
2023/07/17 08:08:23;;;;;;;;;;;;;;;;;;5016066;28;121933;-78
2023/07/17 08:10:50;;;;;;;;;;;;;;;;;;5015869;28;92311;-77
2023/07/17 08:13:16;;;;;;;;;;;;;;;;;;5015572;28;97292;-78
2023/07/17 08:15:43;;;;;;;;;;;;;;;;;;5015259;28;102753;-78
2023/07/17 08:18:09;;;;;;;;;;;;;;;;;;5014410;28;119931;-78
2023/07/17 08:20:36;;;;;;;;;;;;;;;;;;5019374;28;94686;-79
2023/07/17 08:23:02;;;;;;;;;;;;;;;;;;5018436;28;117847;-80
2023/07/17 08:25:28;;;;;;;;;;;;;;;;;;5018491;28;118658;-80
2023/07/17 08:27:55;;;;;;;;;;;;;;;;;;5020718;28;124185;-80
2023/07/17 08:30:21;;;;;;;;;;;;;;;;;;5022350;28;114776;-79
2023/07/17 08:32:48;;;;;;;;;;;;;;;;;;5022085;28;92766;-79
2023/07/17 08:35:14;;;;;;;;;;;;;;;;;;5022006;28;120763;-78
2023/07/17 08:37:40;;;;;;;;;;;;;;;;;;5018108;28;122766;-79
2023/07/17 08:40:07;;;;;;;;;;;;;;;;;;5020810;28;122192;-80
2023/07/17 08:42:34;;;;;;;;;;;;;;;;;;5024981;28;119829;-79
2023/07/17 08:45:00;;;;;;;;;;;;;;;;;;5019489;28;109371;-79
2023/07/17 08:47:27;;;;;;;;;;;;;;;;;;5015117;28;123033;-79
2023/07/17 08:49:53;;;;;;;;;;;;;;;;;;5019705;28;113572;-79
2023/07/17 08:52:19;;;;;;;;;;;;;;;;;;5019299;28;122367;-79
2023/07/17 08:54:46;;;;;;;;;;;;;;;;;;5018294;28;92346;-80
2023/07/17 08:57:12;;;;;;;;;;;;;;;;;;5017056;28;121349;-80
2023/07/17 08:59:39;;;;;;;;;;;;;;;;;;5017809;28;92379;-80
2023/07/17 09:02:05;;;;;;;;;;;;;;;;;;5017718;28;92199;-79
2023/07/17 09:04:32;;;;;;;;;;;;;;;;;;5018738;28;121298;-79
2023/07/17 09:06:58;;;;;;;;;;;;;;;;;;5016147;28;119468;-80
2023/07/17 09:09:24;;;;;;;;;;;;;;;;;;5014949;28;125025;-80
2023/07/17 09:11:51;;;;;;;;;;;;;;;;;;5017968;28;106874;-80
2023/07/17 09:14:17;;;;;;;;;;;;;;;;;;5019489;28;121038;-80
2023/07/17 09:16:46;;;;;;;;;;;;;;;;;;5020930;27;97751;-80
2023/07/17 09:19:13;;;;;;;;;;;;;;;;;;5022663;28;100960;-77
2023/07/17 09:21:39;;;;;;;;;;;;;;;;;;5022286;28;92163;-78
2023/07/17 09:24:06;;;;;;;;;;;;;;;;;;5022045;28;121460;-81
2023/07/17 09:26:32;;;;;;;;;;;;;;;;;;5027774;28;102077;-77
2023/07/17 09:28:59;;;;;;;;;;;;;;;;;;5019021;28;122050;-77
2023/07/17 09:31:25;;;;;;;;;;;;;;;;;;5021845;28;122521;-77
2023/07/17 09:33:52;;;;;;;;;;;;;;;;;;5018401;28;120616;-78
2023/07/17 09:36:18;;;;;;;;;;;;;;;;;;5017333;28;94831;-78
2023/07/17 09:38:45;;;;;;;;;;;;;;;;;;5019696;28;122369;-78
2023/07/17 09:41:11;;;;;;;;;;;;;;;;;;5020722;28;113976;-78
2023/07/17 09:43:37;;;;;;;;;;;;;;;;;;5019746;28;95302;-78
2023/07/17 09:46:04;;;;;;;;;;;;;;;;;;5019483;28;116534;-78
2023/07/17 09:48:30;;;;;;;;;;;;;;;;;;5004924;28;99248;-79
2023/07/17 09:50:57;;;;;;;;;;;;;;;;;;5021957;28;119470;-78
2023/07/17 09:53:24;;;;;;;;;;;;;;;;;;5019737;28;119883;-79
2023/07/17 09:55:50;;;;;;;;;;;;;;;;;;5019340;28;106319;-79
2023/07/17 09:58:16;;;;;;;;;;;;;;;;;;5016801;28;94774;-79
2023/07/17 10:00:43;;;;;;;;;;;;;;;;;;5019485;28;93888;-79
2023/07/17 10:03:09;;;;;;;;;;;;;;;;;;5004004;28;122265;-80
2023/07/17 10:05:37;;;;;;;;;;;;;;;;;;5026621;28;104246;-78
2023/07/17 10:08:03;;;;;;;;;;;;;;;;;;5022670;28;123006;-77
2023/07/17 10:10:29;;;;;;;;;;;;;;;;;;5024901;28;122543;-78
2023/07/17 10:12:56;;;;;;;;;;;;;;;;;;5027324;28;119242;-79
2023/07/17 10:15:23;;;;;;;;;;;;;;;;;;5026154;28;121721;-78
2023/07/17 10:17:50;;;;;;;;;;;;;;;;;;5021407;28;92068;-78
2023/07/17 10:20:16;;;;;;;;;;;;;;;;;;5014922;28;92491;-77
2023/07/17 10:22:46;;;;;;;;;;;;;;;;;;5013554;28;108370;-77
2023/07/17 10:25:13;;;;;;;;;;;;;;;;;;4997518;28;114094;-76
2023/07/17 10:27:39;;;;;;;;;;;;;;;;;;5014372;28;113987;-77
2023/07/17 10:30:06;;;;;;;;;;;;;;;;;;5017967;28;122448;-77
2023/07/17 10:32:32;;;;;;;;;;;;;;;;;;4996612;28;119870;-77
2023/07/17 10:34:58;;;;;;;;;;;;;;;;;;5013072;28;115507;-77
2023/07/17 10:37:25;;;;;;;;;;;;;;;;;;5015414;28;122112;-77
2023/07/17 10:39:52;;;;;;;;;;;;;;;;;;5028789;28;119173;-77
2023/07/17 10:42:19;;;;;;;;;;;;;;;;;;5016571;28;92310;-79
2023/07/17 10:44:45;;;;;;;;;;;;;;;;;;5014978;28;117600;-77
2023/07/17 10:47:12;;;;;;;;;;;;;;;;;;5014341;28;120877;-78
2023/07/17 10:49:39;;;;;;;;;;;;;;;;;;5016785;28;124152;-78
2023/07/17 10:52:06;;;;;;;;;;;;;;;;;;5011476;28;123714;-78
2023/07/17 10:54:32;;;;;;;;;;;;;;;;;;5018350;28;94006;-79
2023/07/17 10:56:59;;;;;;;;;;;;;;;;;;5016875;28;115543;-79
2023/07/17 10:59:26;;;;;;;;;;;;;;;;;;5010895;28;93224;-79
2023/07/17 11:01:53;;;;;;;;;;;;;;;;;;5017206;28;122453;-79
2023/07/17 11:04:19;;;;;;;;;;;;;;;;;;5016389;28;92126;-78
2023/07/17 11:06:46;;;;;;;;;;;;;;;;;;5016510;28;119593;-78
2023/07/17 11:09:13;;;;;;;;;;;;;;;;;;5017180;28;120669;-79
2023/07/17 11:11:39;;;;;;;;;;;;;;;;;;5013645;28;117337;-79
2023/07/17 11:14:05;;;;;;;;;;;;;;;;;;5017949;28;97279;-79
2023/07/17 11:16:32;;;;;;;;;;;;;;;;;;5015735;28;122264;-78
2023/07/17 11:19:03;;;;;;;;;;;;;;;;;;5012314;28;103196;-79
2023/07/17 11:21:30;;;;;;;;;;;;;;;;;;5013364;28;122747;-78
2023/07/17 11:23:57;;;;;;;;;;;;;;;;;;5014039;28;121369;-80
2023/07/17 11:26:23;;;;;;;;;;;;;;;;;;5011883;28;114190;-78
2023/07/17 11:28:49;;;;;;;;;;;;;;;;;;5014552;28;119421;-79
2023/07/17 11:31:16;;;;;;;;;;;;;;;;;;5013671;28;116816;-78
2023/07/17 11:33:43;;;;;;;;;;;;;;;;;;5013152;28;121941;-78
2023/07/17 11:36:09;;;;;;;;;;;;;;;;;;5012911;28;125966;-79
2023/07/17 11:38:35;;;;;;;;;;;;;;;;;;5017438;28;96130;-78
2023/07/17 11:41:02;;;;;;;;;;;;;;;;;;5017370;28;121295;-78
2023/07/17 11:43:29;;;;;;;;;;;;;;;;;;5017241;28;92992;-79
2023/07/17 11:45:55;;;;;;;;;;;;;;;;;;5017774;28;121824;-79
2023/07/17 11:48:22;;;;;;;;;;;;;;;;;;5014666;28;113579;-80
2023/07/17 11:50:49;;;;;;;;;;;;;;;;;;5017823;28;102593;-78
2023/07/17 11:53:16;;;;;;;;;;;;;;;;;;5016620;28;121504;-79
2023/07/17 11:55:43;;;;;;;;;;;;;;;;;;5017174;28;122574;-79
2023/07/17 11:58:09;;;;;;;;;;;;;;;;;;5019094;28;113588;-79
2023/07/17 12:00:36;;;;;;;;;;;;;;;;;;5017345;28;96663;-79
2023/07/17 12:03:02;;;;;;;;;;;;;;;;;;5020522;28;106999;-79
2023/07/17 12:05:29;;;;;;;;;;;;;;;;;;5019909;28;120703;-79
2023/07/17 12:07:56;;;;;;;;;;;;;;;;;;5020058;28;92381;-79
2023/07/17 12:10:22;;;;;;;;;;;;;;;;;;5018315;28;122854;-79
2023/07/17 12:12:50;;;;;;;;;;;;;;;;;;5020280;28;116426;-79
2023/07/17 12:15:17;;;;;;;;;;;;;;;;;;5022319;28;92019;-79
2023/07/17 12:17:43;;;;;;;;;;;;;;;;;;5021644;28;122270;-79
2023/07/17 12:20:10;;;;;;;;;;;;;;;;;;5022134;28;120670;-80
2023/07/17 12:22:36;;;;;;;;;;;;;;;;;;5019535;28;92764;-80
2023/07/17 12:25:03;;;;;;;;;;;;;;;;;;5011274;28;102355;-79
2023/07/17 12:27:29;;;;;;;;;;;;;;;;;;5016034;28;117093;-79
2023/07/17 12:29:57;;;;;;;;;;;;;;;;;;5009943;28;112969;-78
2023/07/17 12:32:24;;;;;;;;;;;;;;;;;;5021362;28;92290;-80
2023/07/17 12:34:50;;;;;;;;;;;;;;;;;;5020062;28;92295;-80
2023/07/17 12:37:16;;;;;;;;;;;;;;;;;;5018215;28;107695;-82
2023/07/17 12:39:43;;;;;;;;;;;;;;;;;;5021678;28;119452;-85
2023/07/17 12:42:09;;;;;;;;;;;;;;;;;;5021914;28;92264;-84
2023/07/17 12:44:36;;;;;;;;;;;;;;;;;;5024020;28;92200;-84
2023/07/17 12:47:02;;;;;;;;;;;;;;;;;;5024377;28;114138;-83
2023/07/17 12:49:29;;;;;;;;;;;;;;;;;;5021894;28;95977;-84
2023/07/17 12:51:55;;;;;;;;;;;;;;;;;;5021281;28;113952;-83
2023/07/17 12:54:23;;;;;;;;;;;;;;;;;;5024377;28;93194;-82
2023/07/17 12:56:49;;;;;;;;;;;;;;;;;;5018722;28;122544;-83
2023/07/17 12:59:16;;;;;;;;;;;;;;;;;;5022429;28;92347;-81
2023/07/17 13:01:43;;;;;;;;;;;;;;;;;;5020481;28;110811;-80
2023/07/17 13:04:09;;;;;;;;;;;;;;;;;;5015277;28;123500;-81
2023/07/17 13:06:36;;;;;;;;;;;;;;;;;;5018848;28;91703;-80
2023/07/17 13:09:03;;;;;;;;;;;;;;;;;;5016278;28;121779;-80
2023/07/17 13:11:30;;;;;;;;;;;;;;;;;;5015419;28;113480;-81
2023/07/17 13:13:59;;;;;;;;;;;;;;;;;;5014129;28;127876;-81
2023/07/17 13:16:26;;;;;;;;;;;;;;;;;;5017430;28;113220;-81
2023/07/17 13:18:55;;;;;;;;;;;;;;;;;;5017171;28;106996;-81
2023/07/17 13:21:22;;;;;;;;;;;;;;;;;;5018140;28;106379;-82
2023/07/17 13:23:48;;;;;;;;;;;;;;;;;;5021170;28;122411;-82
2023/07/17 13:26:14;;;;;;;;;;;;;;;;;;5020185;28;92444;-81
2023/07/17 13:28:41;;;;;;;;;;;;;;;;;;5015590;28;122679;-80
2023/07/17 13:31:07;;;;;;;;;;;;;;;;;;5017775;28;121397;-81
2023/07/17 13:33:35;;;;;;;;;;;;;;;;;;5019047;28;121500;-81
2023/07/17 13:36:02;;;;;;;;;;;;;;;;;;5017060;28;92831;-80
2023/07/17 13:38:28;;;;;;;;;;;;;;;;;;5012706;28;124310;-81
2023/07/17 13:40:55;;;;;;;;;;;;;;;;;;5015177;28;94564;-80
2023/07/17 13:43:24;;;;;;;;;;;;;;;;;;5015037;28;117078;-81
2023/07/17 13:45:50;;;;;;;;;;;;;;;;;;5019035;28;121252;-81
2023/07/17 13:48:18;;;;;;;;;;;;;;;;;;5018855;28;92391;-80
2023/07/17 13:50:45;;;;;;;;;;;;;;;;;;5017410;28;93356;-81
2023/07/17 13:53:11;;;;;;;;;;;;;;;;;;5016397;28;123175;-81
2023/07/17 13:55:38;;;;;;;;;;;;;;;;;;5019434;28;92057;-80
2023/07/17 13:58:05;;;;;;;;;;;;;;;;;;5000875;28;98194;-81
2023/07/17 14:00:31;;;;;;;;;;;;;;;;;;5019432;28;100799;-81
2023/07/17 14:02:58;;;;;;;;;;;;;;;;;;5018014;28;117154;-80
2023/07/17 14:05:24;;;;;;;;;;;;;;;;;;5018270;28;123570;-79
2023/07/17 14:07:51;;;;;;;;;;;;;;;;;;5023053;28;92539;-79
2023/07/17 14:10:17;;;;;;;;;;;;;;;;;;5024103;28;92259;-80
2023/07/17 14:12:44;;;;;;;;;;;;;;;;;;5019800;28;124800;-81
2023/07/17 14:15:10;;;;;;;;;;;;;;;;;;5024472;28;92823;-80
2023/07/17 14:17:37;;;;;;;;;;;;;;;;;;5023299;28;120832;-80
2023/07/17 14:20:03;;;;;;;;;;;;;;;;;;5016310;28;120283;-80
2023/07/17 14:22:30;;;;;;;;;;;;;;;;;;5020430;27;117281;-79
2023/07/17 14:24:56;;;;;;;;;;;;;;;;;;5019410;28;110634;-79
2023/07/17 14:27:22;;;;;;;;;;;;;;;;;;5013514;28;123957;-79
2023/07/17 14:29:49;;;;;;;;;;;;;;;;;;5022530;27;92110;-81
2023/07/17 14:32:15;;;;;;;;;;;;;;;;;;5029587;28;122772;-80
2023/07/17 14:34:42;;;;;;;;;;;;;;;;;;5021763;27;92708;-80
2023/07/17 14:37:08;;;;;;;;;;;;;;;;;;5018575;28;120533;-80
2023/07/17 14:39:35;;;;;;;;;;;;;;;;;;5017900;28;122409;-80
2023/07/17 14:42:01;;;;;;;;;;;;;;;;;;5019949;28;92416;-80
2023/07/17 14:44:27;;;;;;;;;;;;;;;;;;5019211;28;122301;-80
2023/07/17 14:46:54;;;;;;;;;;;;;;;;;;5019355;28;116274;-80
2023/07/17 14:49:20;;;;;;;;;;;;;;;;;;5021371;28;94309;-79
2023/07/17 14:51:47;;;;;;;;;;;;;;;;;;5018075;28;94581;-79
2023/07/17 14:54:14;;;;;;;;;;;;;;;;;;5020904;27;92516;-79
2023/07/17 14:56:41;;;;;;;;;;;;;;;;;;5017286;28;119657;-79
2023/07/17 14:59:07;;;;;;;;;;;;;;;;;;5017055;28;94831;-80
2023/07/17 15:01:41;;;;;;;;;;;;;;;;;;5018352;28;94798;-80
2023/07/17 15:04:07;;;;;;;;;;;;;;;;;;5016563;28;120487;-80
2023/07/17 15:06:34;;;;;;;;;;;;;;;;;;5019868;28;93063;-80
2023/07/17 15:09:00;;;;;;;;;;;;;;;;;;5019964;28;107182;-79
2023/07/17 15:11:26;;;;;;;;;;;;;;;;;;5021041;28;121367;-79
2023/07/17 15:13:53;;;;;;;;;;;;;;;;;;5018768;28;124386;-79
2023/07/17 15:16:19;;;;;;;;;;;;;;;;;;5017566;28;114174;-80
2023/07/17 15:18:48;;;;;;;;;;;;;;;;;;5017584;28;121288;-80
2023/07/17 15:21:14;;;;;;;;;;;;;;;;;;5019173;28;120685;-79
2023/07/17 15:23:41;;;;;;;;;;;;;;;;;;5018306;28;117747;-79
2023/07/17 15:26:07;;;;;;;;;;;;;;;;;;5020444;28;120564;-80
2023/07/17 15:28:33;;;;;;;;;;;;;;;;;;5018254;28;109652;-80
2023/07/17 15:31:00;;;;;;;;;;;;;;;;;;5018391;28;120774;-80
2023/07/17 15:33:29;;;;;;;;;;;;;;;;;;5019684;28;106370;-80
2023/07/17 15:35:58;;;;;;;;;;;;;;;;;;5009437;28;93061;-81
2023/07/17 15:38:24;;;;;;;;;;;;;;;;;;5016902;28;121888;-80
2023/07/17 15:40:50;;;;;;;;;;;;;;;;;;5016715;28;105340;-81
2023/07/17 15:43:17;;;;;;;;;;;;;;;;;;5017797;28;122124;-80
2023/07/17 15:45:43;;;;;;;;;;;;;;;;;;5018103;28;92382;-80
2023/07/17 15:48:13;;;;;;;;;;;;;;;;;;5017310;28;111200;-80
2023/07/17 15:50:40;;;;;;;;;;;;;;;;;;5022351;28;120752;-80
2023/07/17 15:53:06;;;;;;;;;;;;;;;;;;5016044;28;111214;-80
2023/07/17 15:55:32;;;;;;;;;;;;;;;;;;5015184;28;122461;-80
2023/07/17 15:57:59;;;;;;;;;;;;;;;;;;5015781;28;108317;-81
2023/07/17 16:00:27;;;;;;;;;;;;;;;;;;5017214;28;122249;-79
2023/07/17 16:02:57;;;;;;;;;;;;;;;;;;5019321;28;92406;-80
2023/07/17 16:05:25;;;;;;;;;;;;;;;;;;5013422;28;94956;-78
2023/07/17 16:07:52;;;;;;;;;;;;;;;;;;5015761;28;102479;-81
2023/07/17 16:10:19;;;;;;;;;;;;;;;;;;5015451;28;92399;-79
2023/07/17 16:12:46;;;;;;;;;;;;;;;;;;5013728;28;121223;-79
2023/07/17 16:15:12;;;;;;;;;;;;;;;;;;5016446;28;92899;-79
2023/07/17 16:17:39;;;;;;;;;;;;;;;;;;5020450;28;92021;-79
2023/07/17 16:20:05;;;;;;;;;;;;;;;;;;5014339;28;103663;-78
2023/07/17 16:22:32;;;;;;;;;;;;;;;;;;5014409;28;107337;-78
2023/07/17 16:24:58;;;;;;;;;;;;;;;;;;5016344;28;92321;-78
2023/07/17 16:27:27;;;;;;;;;;;;;;;;;;5014033;28;101207;-78
2023/07/17 16:29:54;;;;;;;;;;;;;;;;;;5016728;28;120460;-78